sensor_id;sensor_type;location;lat;lon;timestamp;P1;durP1;ratioP1;P2;durP2;ratioP2
50319;SDS011;36226;53.464;9.852;2022-11-23T00:03:47;39.33;;;14.05;;
50319;SDS011;36226;53.464;9.852;2022-11-23T00:06:14;34.63;;;15.48;;
50319;SDS011;36226;53.464;9.852;2022-11-23T00:08:40;33.67;;;14.30;;
50319;SDS011;36226;53.464;9.852;2022-11-23T00:11:08;32.17;;;14.75;;
50319;SDS011;36226;53.464;9.852;2022-11-23T00:13:34;36.58;;;14.02;;
50319;SDS011;36226;53.464;9.852;2022-11-23T00:16:00;36.60;;;15.30;;
50319;SDS011;36226;53.464;9.852;2022-11-23T00:18:46;31.85;;;14.57;;
50319;SDS011;36226;53.464;9.852;2022-11-23T00:21:15;30.35;;;13.45;;
50319;SDS011;36226;53.464;9.852;2022-11-23T00:23:42;33.83;;;14.45;;
50319;SDS011;36226;53.464;9.852;2022-11-23T00:26:08;37.38;;;15.43;;
50319;SDS011;36226;53.464;9.852;2022-11-23T00:28:34;34.83;;;15.02;;
50319;SDS011;36226;53.464;9.852;2022-11-23T00:31:02;33.80;;;15.13;;
50319;SDS011;36226;53.464;9.852;2022-11-23T00:33:28;33.80;;;14.63;;
50319;SDS011;36226;53.464;9.852;2022-11-23T00:38:35;34.55;;;15.38;;
50319;SDS011;36226;53.464;9.852;2022-11-23T00:41:02;32.17;;;14.98;;
50319;SDS011;36226;53.464;9.852;2022-11-23T00:43:28;34.15;;;14.32;;
50319;SDS011;36226;53.464;9.852;2022-11-23T00:46:07;34.25;;;15.23;;
50319;SDS011;36226;53.464;9.852;2022-11-23T00:48:36;31.35;;;14.20;;
50319;SDS011;36226;53.464;9.852;2022-11-23T00:51:02;34.60;;;14.98;;
50319;SDS011;36226;53.464;9.852;2022-11-23T00:53:29;35.20;;;15.00;;
50319;SDS011;36226;53.464;9.852;2022-11-23T00:55:55;31.23;;;13.57;;
50319;SDS011;36226;53.464;9.852;2022-11-23T00:58:20;30.52;;;14.00;;
50319;SDS011;36226;53.464;9.852;2022-11-23T01:00:46;31.02;;;13.30;;
50319;SDS011;36226;53.464;9.852;2022-11-23T01:03:12;31.23;;;14.57;;
50319;SDS011;36226;53.464;9.852;2022-11-23T01:05:37;36.33;;;14.98;;
50319;SDS011;36226;53.464;9.852;2022-11-23T01:08:06;36.63;;;15.15;;
50319;SDS011;36226;53.464;9.852;2022-11-23T01:10:31;27.90;;;12.05;;
50319;SDS011;36226;53.464;9.852;2022-11-23T01:12:57;32.08;;;14.40;;
50319;SDS011;36226;53.464;9.852;2022-11-23T01:15:23;38.38;;;14.52;;
50319;SDS011;36226;53.464;9.852;2022-11-23T01:17:49;34.70;;;14.70;;
50319;SDS011;36226;53.464;9.852;2022-11-23T01:20:14;33.75;;;13.20;;
50319;SDS011;36226;53.464;9.852;2022-11-23T01:22:40;27.48;;;12.07;;
50319;SDS011;36226;53.464;9.852;2022-11-23T01:25:06;30.20;;;13.15;;
50319;SDS011;36226;53.464;9.852;2022-11-23T01:27:31;30.42;;;14.57;;
50319;SDS011;36226;53.464;9.852;2022-11-23T01:29:57;34.42;;;14.68;;
50319;SDS011;36226;53.464;9.852;2022-11-23T01:32:22;35.70;;;14.65;;
50319;SDS011;36226;53.464;9.852;2022-11-23T01:34:47;30.48;;;12.85;;
50319;SDS011;36226;53.464;9.852;2022-11-23T01:37:13;27.58;;;13.85;;
50319;SDS011;36226;53.464;9.852;2022-11-23T01:39:38;28.90;;;13.18;;
50319;SDS011;36226;53.464;9.852;2022-11-23T01:42:03;33.05;;;14.30;;
50319;SDS011;36226;53.464;9.852;2022-11-23T01:44:32;30.27;;;13.95;;
50319;SDS011;36226;53.464;9.852;2022-11-23T01:46:59;32.00;;;12.43;;
50319;SDS011;36226;53.464;9.852;2022-11-23T01:49:27;25.65;;;12.63;;
50319;SDS011;36226;53.464;9.852;2022-11-23T01:51:56;30.67;;;13.30;;
50319;SDS011;36226;53.464;9.852;2022-11-23T01:54:25;28.30;;;13.40;;
50319;SDS011;36226;53.464;9.852;2022-11-23T01:56:54;33.15;;;13.90;;
50319;SDS011;36226;53.464;9.852;2022-11-23T01:59:22;28.40;;;13.15;;
50319;SDS011;36226;53.464;9.852;2022-11-23T02:01:49;29.17;;;13.35;;
50319;SDS011;36226;53.464;9.852;2022-11-23T02:04:16;32.17;;;13.88;;
50319;SDS011;36226;53.464;9.852;2022-11-23T02:06:45;30.10;;;13.35;;
50319;SDS011;36226;53.464;9.852;2022-11-23T02:09:11;34.45;;;14.27;;
50319;SDS011;36226;53.464;9.852;2022-11-23T02:11:38;30.95;;;14.02;;
50319;SDS011;36226;53.464;9.852;2022-11-23T02:14:04;29.83;;;13.95;;
50319;SDS011;36226;53.464;9.852;2022-11-23T02:16:29;28.23;;;13.10;;
50319;SDS011;36226;53.464;9.852;2022-11-23T02:18:54;31.77;;;14.23;;
50319;SDS011;36226;53.464;9.852;2022-11-23T02:21:20;31.52;;;12.43;;
50319;SDS011;36226;53.464;9.852;2022-11-23T02:26:29;33.05;;;13.30;;
50319;SDS011;36226;53.464;9.852;2022-11-23T02:29:02;30.98;;;13.43;;
50319;SDS011;36226;53.464;9.852;2022-11-23T02:31:33;29.52;;;13.13;;
50319;SDS011;36226;53.464;9.852;2022-11-23T02:33:59;27.73;;;13.23;;
50319;SDS011;36226;53.464;9.852;2022-11-23T02:39:16;32.60;;;12.82;;
50319;SDS011;36226;53.464;9.852;2022-11-23T02:41:56;33.05;;;13.95;;
50319;SDS011;36226;53.464;9.852;2022-11-23T02:44:24;30.05;;;13.25;;
50319;SDS011;36226;53.464;9.852;2022-11-23T02:47:11;27.42;;;13.10;;
50319;SDS011;36226;53.464;9.852;2022-11-23T02:49:38;28.58;;;12.73;;
50319;SDS011;36226;53.464;9.852;2022-11-23T02:52:04;28.95;;;12.63;;
50319;SDS011;36226;53.464;9.852;2022-11-23T02:54:29;32.78;;;12.40;;
50319;SDS011;36226;53.464;9.852;2022-11-23T02:56:55;27.30;;;12.60;;
50319;SDS011;36226;53.464;9.852;2022-11-23T02:59:20;34.22;;;13.27;;
50319;SDS011;36226;53.464;9.852;2022-11-23T03:01:46;25.63;;;11.35;;
50319;SDS011;36226;53.464;9.852;2022-11-23T03:04:12;27.83;;;12.25;;
50319;SDS011;36226;53.464;9.852;2022-11-23T03:06:37;30.58;;;12.27;;
50319;SDS011;36226;53.464;9.852;2022-11-23T03:09:03;27.85;;;12.23;;
50319;SDS011;36226;53.464;9.852;2022-11-23T03:11:28;25.60;;;12.25;;
50319;SDS011;36226;53.464;9.852;2022-11-23T03:13:54;27.38;;;11.95;;
50319;SDS011;36226;53.464;9.852;2022-11-23T03:16:19;23.80;;;12.00;;
50319;SDS011;36226;53.464;9.852;2022-11-23T03:18:44;23.83;;;11.70;;
50319;SDS011;36226;53.464;9.852;2022-11-23T03:21:10;26.73;;;12.68;;
50319;SDS011;36226;53.464;9.852;2022-11-23T03:23:35;23.92;;;11.38;;
50319;SDS011;36226;53.464;9.852;2022-11-23T03:26:01;31.63;;;13.32;;
50319;SDS011;36226;53.464;9.852;2022-11-23T03:28:29;24.20;;;11.32;;
50319;SDS011;36226;53.464;9.852;2022-11-23T03:30:55;24.25;;;11.45;;
50319;SDS011;36226;53.464;9.852;2022-11-23T03:33:20;25.25;;;12.35;;
50319;SDS011;36226;53.464;9.852;2022-11-23T03:35:49;28.45;;;11.85;;
50319;SDS011;36226;53.464;9.852;2022-11-23T03:38:14;22.90;;;9.88;;
50319;SDS011;36226;53.464;9.852;2022-11-23T03:40:40;25.02;;;10.68;;
50319;SDS011;36226;53.464;9.852;2022-11-23T03:43:05;21.27;;;11.60;;
50319;SDS011;36226;53.464;9.852;2022-11-23T03:45:31;23.38;;;11.57;;
50319;SDS011;36226;53.464;9.852;2022-11-23T04:47:05;21.48;;;10.32;;
50319;SDS011;36226;53.464;9.852;2022-11-23T04:50:25;19.73;;;9.68;;
50319;SDS011;36226;53.464;9.852;2022-11-23T04:52:50;23.48;;;10.60;;
50319;SDS011;36226;53.464;9.852;2022-11-23T04:55:16;22.02;;;10.18;;
50319;SDS011;36226;53.464;9.852;2022-11-23T04:57:41;22.80;;;9.73;;
50319;SDS011;36226;53.464;9.852;2022-11-23T05:00:07;17.80;;;8.85;;
50319;SDS011;36226;53.464;9.852;2022-11-23T05:02:33;21.27;;;9.57;;
50319;SDS011;36226;53.464;9.852;2022-11-23T05:04:58;20.98;;;9.57;;
50319;SDS011;36226;53.464;9.852;2022-11-23T05:07:23;23.40;;;10.88;;
50319;SDS011;36226;53.464;9.852;2022-11-23T05:09:49;20.48;;;9.88;;
50319;SDS011;36226;53.464;9.852;2022-11-23T05:12:14;22.48;;;8.90;;
50319;SDS011;36226;53.464;9.852;2022-11-23T05:14:39;22.77;;;9.63;;
50319;SDS011;36226;53.464;9.852;2022-11-23T05:17:07;22.73;;;9.85;;
50319;SDS011;36226;53.464;9.852;2022-11-23T05:19:34;18.08;;;9.30;;
50319;SDS011;36226;53.464;9.852;2022-11-23T05:22:00;22.58;;;8.55;;
50319;SDS011;36226;53.464;9.852;2022-11-23T05:24:25;20.35;;;8.45;;
50319;SDS011;36226;53.464;9.852;2022-11-23T05:26:50;18.50;;;7.88;;
50319;SDS011;36226;53.464;9.852;2022-11-23T05:29:16;18.40;;;8.80;;
50319;SDS011;36226;53.464;9.852;2022-11-23T05:31:41;23.27;;;9.20;;
50319;SDS011;36226;53.464;9.852;2022-11-23T05:34:06;19.23;;;9.32;;
50319;SDS011;36226;53.464;9.852;2022-11-23T05:36:32;21.67;;;8.27;;
50319;SDS011;36226;53.464;9.852;2022-11-23T05:38:57;18.38;;;8.80;;
50319;SDS011;36226;53.464;9.852;2022-11-23T05:41:23;24.55;;;9.02;;
50319;SDS011;36226;53.464;9.852;2022-11-23T05:43:48;21.50;;;9.57;;
50319;SDS011;36226;53.464;9.852;2022-11-23T05:46:13;16.45;;;8.55;;
50319;SDS011;36226;53.464;9.852;2022-11-23T05:48:39;17.05;;;8.63;;
50319;SDS011;36226;53.464;9.852;2022-11-23T05:51:04;16.38;;;8.27;;
50319;SDS011;36226;53.464;9.852;2022-11-23T05:53:29;18.90;;;8.85;;
50319;SDS011;36226;53.464;9.852;2022-11-23T05:56:01;19.02;;;7.78;;
50319;SDS011;36226;53.464;9.852;2022-11-23T05:58:27;16.92;;;7.43;;
50319;SDS011;36226;53.464;9.852;2022-11-23T06:00:59;19.10;;;8.15;;
50319;SDS011;36226;53.464;9.852;2022-11-23T06:03:25;16.70;;;7.95;;
50319;SDS011;36226;53.464;9.852;2022-11-23T06:11:16;22.05;;;8.27;;
50319;SDS011;36226;53.464;9.852;2022-11-23T06:13:46;18.02;;;8.18;;
50319;SDS011;36226;53.464;9.852;2022-11-23T06:16:12;19.08;;;8.68;;
50319;SDS011;36226;53.464;9.852;2022-11-23T06:18:37;18.70;;;8.23;;
50319;SDS011;36226;53.464;9.852;2022-11-23T06:21:03;17.90;;;8.60;;
50319;SDS011;36226;53.464;9.852;2022-11-23T06:23:28;18.30;;;7.75;;
50319;SDS011;36226;53.464;9.852;2022-11-23T06:25:54;20.95;;;8.48;;
50319;SDS011;36226;53.464;9.852;2022-11-23T06:28:19;17.02;;;8.57;;
50319;SDS011;36226;53.464;9.852;2022-11-23T06:30:44;17.65;;;8.07;;
50319;SDS011;36226;53.464;9.852;2022-11-23T06:33:10;17.63;;;8.95;;
50319;SDS011;36226;53.464;9.852;2022-11-23T06:35:35;19.67;;;8.43;;
50319;SDS011;36226;53.464;9.852;2022-11-23T06:38:00;15.52;;;8.05;;
50319;SDS011;36226;53.464;9.852;2022-11-23T06:40:26;16.52;;;9.18;;
50319;SDS011;36226;53.464;9.852;2022-11-23T06:42:56;23.77;;;8.68;;
50319;SDS011;36226;53.464;9.852;2022-11-23T06:45:24;18.58;;;8.23;;
50319;SDS011;36226;53.464;9.852;2022-11-23T06:47:53;21.77;;;8.68;;
50319;SDS011;36226;53.464;9.852;2022-11-23T06:50:19;21.25;;;9.43;;
50319;SDS011;36226;53.464;9.852;2022-11-23T06:52:44;19.80;;;8.48;;
50319;SDS011;36226;53.464;9.852;2022-11-23T06:55:10;18.77;;;8.63;;
50319;SDS011;36226;53.464;9.852;2022-11-23T06:57:35;18.30;;;9.27;;
50319;SDS011;36226;53.464;9.852;2022-11-23T07:00:01;18.65;;;8.93;;
50319;SDS011;36226;53.464;9.852;2022-11-23T07:02:27;16.98;;;8.63;;
50319;SDS011;36226;53.464;9.852;2022-11-23T07:04:52;17.42;;;8.27;;
50319;SDS011;36226;53.464;9.852;2022-11-23T07:07:18;17.75;;;7.63;;
50319;SDS011;36226;53.464;9.852;2022-11-23T07:09:43;16.15;;;8.00;;
50319;SDS011;36226;53.464;9.852;2022-11-23T07:12:08;13.82;;;6.72;;
50319;SDS011;36226;53.464;9.852;2022-11-23T07:14:34;16.55;;;8.23;;
50319;SDS011;36226;53.464;9.852;2022-11-23T07:16:59;18.08;;;7.82;;
50319;SDS011;36226;53.464;9.852;2022-11-23T07:19:24;20.30;;;8.13;;
50319;SDS011;36226;53.464;9.852;2022-11-23T07:21:50;14.07;;;7.30;;
50319;SDS011;36226;53.464;9.852;2022-11-23T07:24:15;13.52;;;7.07;;
50319;SDS011;36226;53.464;9.852;2022-11-23T07:26:40;16.40;;;7.75;;
50319;SDS011;36226;53.464;9.852;2022-11-23T07:29:06;14.50;;;6.82;;
50319;SDS011;36226;53.464;9.852;2022-11-23T07:31:31;14.20;;;7.05;;
50319;SDS011;36226;53.464;9.852;2022-11-23T07:33:57;17.33;;;7.20;;
50319;SDS011;36226;53.464;9.852;2022-11-23T07:36:22;12.25;;;5.72;;
50319;SDS011;36226;53.464;9.852;2022-11-23T07:38:47;15.13;;;6.18;;
50319;SDS011;36226;53.464;9.852;2022-11-23T07:41:13;16.35;;;6.15;;
50319;SDS011;36226;53.464;9.852;2022-11-23T07:43:38;12.00;;;6.00;;
50319;SDS011;36226;53.464;9.852;2022-11-23T07:46:03;13.38;;;6.07;;
50319;SDS011;36226;53.464;9.852;2022-11-23T07:48:29;12.68;;;5.60;;
50319;SDS011;36226;53.464;9.852;2022-11-23T07:50:54;14.52;;;5.53;;
50319;SDS011;36226;53.464;9.852;2022-11-23T07:53:20;21.70;;;5.90;;
50319;SDS011;36226;53.464;9.852;2022-11-23T07:55:45;13.73;;;6.10;;
50319;SDS011;36226;53.464;9.852;2022-11-23T07:58:11;13.93;;;5.57;;
50319;SDS011;36226;53.464;9.852;2022-11-23T08:00:36;12.77;;;5.63;;
50319;SDS011;36226;53.464;9.852;2022-11-23T08:03:02;13.70;;;5.90;;
50319;SDS011;36226;53.464;9.852;2022-11-23T08:05:30;11.35;;;5.50;;
50319;SDS011;36226;53.464;9.852;2022-11-23T08:07:56;15.45;;;5.45;;
50319;SDS011;36226;53.464;9.852;2022-11-23T08:10:23;13.40;;;5.40;;
50319;SDS011;36226;53.464;9.852;2022-11-23T08:12:48;11.02;;;4.88;;
50319;SDS011;36226;53.464;9.852;2022-11-23T08:15:14;8.90;;;4.65;;
50319;SDS011;36226;53.464;9.852;2022-11-23T08:17:39;9.15;;;4.93;;
50319;SDS011;36226;53.464;9.852;2022-11-23T08:20:05;12.10;;;5.53;;
50319;SDS011;36226;53.464;9.852;2022-11-23T08:22:30;14.88;;;6.22;;
50319;SDS011;36226;53.464;9.852;2022-11-23T08:24:56;11.88;;;4.93;;
50319;SDS011;36226;53.464;9.852;2022-11-23T08:27:21;14.35;;;5.32;;
50319;SDS011;36226;53.464;9.852;2022-11-23T08:29:46;13.00;;;5.05;;
50319;SDS011;36226;53.464;9.852;2022-11-23T08:32:12;15.23;;;5.22;;
50319;SDS011;36226;53.464;9.852;2022-11-23T08:34:37;10.07;;;5.35;;
50319;SDS011;36226;53.464;9.852;2022-11-23T08:37:03;12.52;;;4.65;;
50319;SDS011;36226;53.464;9.852;2022-11-23T08:39:28;11.70;;;4.50;;
50319;SDS011;36226;53.464;9.852;2022-11-23T08:41:53;9.27;;;3.78;;
50319;SDS011;36226;53.464;9.852;2022-11-23T08:44:19;11.93;;;4.00;;
50319;SDS011;36226;53.464;9.852;2022-11-23T08:46:44;6.88;;;3.70;;
50319;SDS011;36226;53.464;9.852;2022-11-23T08:49:09;7.07;;;3.80;;
50319;SDS011;36226;53.464;9.852;2022-11-23T08:51:35;11.43;;;3.45;;
50319;SDS011;36226;53.464;9.852;2022-11-23T08:54:00;7.72;;;3.70;;
50319;SDS011;36226;53.464;9.852;2022-11-23T08:56:25;12.55;;;3.28;;
50319;SDS011;36226;53.464;9.852;2022-11-23T08:58:51;6.80;;;3.55;;
50319;SDS011;36226;53.464;9.852;2022-11-23T09:01:16;7.75;;;3.17;;
50319;SDS011;36226;53.464;9.852;2022-11-23T09:03:42;9.07;;;3.15;;
50319;SDS011;36226;53.464;9.852;2022-11-23T09:06:08;8.40;;;3.35;;
50319;SDS011;36226;53.464;9.852;2022-11-23T09:08:34;8.45;;;3.13;;
50319;SDS011;36226;53.464;9.852;2022-11-23T09:11:00;9.82;;;3.33;;
50319;SDS011;36226;53.464;9.852;2022-11-23T09:13:27;7.82;;;2.83;;
50319;SDS011;36226;53.464;9.852;2022-11-23T09:15:56;5.85;;;3.00;;
50319;SDS011;36226;53.464;9.852;2022-11-23T09:18:25;10.40;;;2.97;;
50319;SDS011;36226;53.464;9.852;2022-11-23T09:20:51;8.75;;;3.85;;
50319;SDS011;36226;53.464;9.852;2022-11-23T09:23:16;7.78;;;2.72;;
50319;SDS011;36226;53.464;9.852;2022-11-23T09:25:42;6.10;;;2.78;;
50319;SDS011;36226;53.464;9.852;2022-11-23T09:28:11;6.82;;;2.53;;
50319;SDS011;36226;53.464;9.852;2022-11-23T09:30:38;5.85;;;2.80;;
50319;SDS011;36226;53.464;9.852;2022-11-23T09:33:04;4.72;;;2.30;;
50319;SDS011;36226;53.464;9.852;2022-11-23T09:35:29;7.72;;;2.65;;
50319;SDS011;36226;53.464;9.852;2022-11-23T09:40:34;8.07;;;2.70;;
50319;SDS011;36226;53.464;9.852;2022-11-23T09:50:51;5.85;;;2.00;;
50319;SDS011;36226;53.464;9.852;2022-11-23T09:56:17;5.20;;;2.17;;
50319;SDS011;36226;53.464;9.852;2022-11-23T09:58:45;16.05;;;7.95;;
50319;SDS011;36226;53.464;9.852;2022-11-23T10:01:12;8.30;;;4.38;;
50319;SDS011;36226;53.464;9.852;2022-11-23T10:03:40;10.88;;;3.40;;
50319;SDS011;36226;53.464;9.852;2022-11-23T10:13:57;5.65;;;2.28;;
50319;SDS011;36226;53.464;9.852;2022-11-23T10:16:30;6.97;;;2.10;;
50319;SDS011;36226;53.464;9.852;2022-11-23T10:19:19;11.73;;;5.25;;
50319;SDS011;36226;53.464;9.852;2022-11-23T10:24:43;18.17;;;7.97;;
50319;SDS011;36226;53.464;9.852;2022-11-23T10:27:14;13.40;;;5.65;;
50319;SDS011;36226;53.464;9.852;2022-11-23T10:29:41;12.02;;;4.07;;
50319;SDS011;36226;53.464;9.852;2022-11-23T10:32:15;6.30;;;2.08;;
50319;SDS011;36226;53.464;9.852;2022-11-23T10:35:03;22.42;;;10.07;;
50319;SDS011;36226;53.464;9.852;2022-11-23T10:37:31;4.78;;;2.13;;
50319;SDS011;36226;53.464;9.852;2022-11-23T10:39:57;7.22;;;2.70;;
50319;SDS011;36226;53.464;9.852;2022-11-23T10:42:33;6.28;;;1.85;;
50319;SDS011;36226;53.464;9.852;2022-11-23T10:45:01;6.63;;;3.50;;
50319;SDS011;36226;53.464;9.852;2022-11-23T10:50:23;8.32;;;4.82;;
50319;SDS011;36226;53.464;9.852;2022-11-23T10:52:51;6.00;;;2.10;;
50319;SDS011;36226;53.464;9.852;2022-11-23T10:55:21;9.65;;;2.83;;
50319;SDS011;36226;53.464;9.852;2022-11-23T10:57:49;6.65;;;1.80;;
50319;SDS011;36226;53.464;9.852;2022-11-23T11:00:16;7.20;;;3.08;;
50319;SDS011;36226;53.464;9.852;2022-11-23T11:02:46;5.53;;;1.80;;
50319;SDS011;36226;53.464;9.852;2022-11-23T11:07:59;8.50;;;2.90;;
50319;SDS011;36226;53.464;9.852;2022-11-23T11:10:47;8.27;;;1.67;;
50319;SDS011;36226;53.464;9.852;2022-11-23T11:16:09;5.10;;;1.80;;
50319;SDS011;36226;53.464;9.852;2022-11-23T11:18:43;4.10;;;1.80;;
50319;SDS011;36226;53.464;9.852;2022-11-23T11:21:18;4.40;;;1.92;;
50319;SDS011;36226;53.464;9.852;2022-11-23T11:23:45;6.43;;;2.05;;
50319;SDS011;36226;53.464;9.852;2022-11-23T11:26:19;12.82;;;5.93;;
50319;SDS011;36226;53.464;9.852;2022-11-23T11:28:50;6.07;;;2.20;;
50319;SDS011;36226;53.464;9.852;2022-11-23T11:36:22;5.97;;;2.40;;
50319;SDS011;36226;53.464;9.852;2022-11-23T11:38:50;8.20;;;2.13;;
50319;SDS011;36226;53.464;9.852;2022-11-23T11:41:19;6.15;;;2.53;;
50319;SDS011;36226;53.464;9.852;2022-11-23T11:43:51;3.67;;;1.88;;
50319;SDS011;36226;53.464;9.852;2022-11-23T11:46:21;5.95;;;1.88;;
50319;SDS011;36226;53.464;9.852;2022-11-23T11:51:27;6.80;;;2.10;;
50319;SDS011;36226;53.464;9.852;2022-11-23T11:56:45;5.53;;;2.30;;
50319;SDS011;36226;53.464;9.852;2022-11-23T12:07:31;5.00;;;2.10;;
50319;SDS011;36226;53.464;9.852;2022-11-23T12:10:01;8.40;;;2.05;;
50319;SDS011;36226;53.464;9.852;2022-11-23T12:12:29;7.40;;;2.55;;
50319;SDS011;36226;53.464;9.852;2022-11-23T12:14:56;5.75;;;1.88;;
50319;SDS011;36226;53.464;9.852;2022-11-23T12:22:51;7.13;;;2.63;;
50319;SDS011;36226;53.464;9.852;2022-11-23T12:25:26;5.45;;;2.95;;
50319;SDS011;36226;53.464;9.852;2022-11-23T12:49:27;6.30;;;1.70;;
50319;SDS011;36226;53.464;9.852;2022-11-23T12:54:56;5.50;;;1.45;;
50319;SDS011;36226;53.464;9.852;2022-11-23T12:57:28;3.40;;;1.60;;
50319;SDS011;36226;53.464;9.852;2022-11-23T13:08:00;5.55;;;2.13;;
50319;SDS011;36226;53.464;9.852;2022-11-23T13:19:23;4.70;;;1.60;;
50319;SDS011;36226;53.464;9.852;2022-11-23T13:21:54;7.50;;;1.90;;
50319;SDS011;36226;53.464;9.852;2022-11-23T13:29:54;6.38;;;1.77;;
50319;SDS011;36226;53.464;9.852;2022-11-23T13:40:33;5.78;;;1.77;;
50319;SDS011;36226;53.464;9.852;2022-11-23T13:43:03;6.25;;;1.55;;
50319;SDS011;36226;53.464;9.852;2022-11-23T13:45:35;5.63;;;1.52;;
50319;SDS011;36226;53.464;9.852;2022-11-23T13:50:32;6.55;;;1.50;;
50319;SDS011;36226;53.464;9.852;2022-11-23T13:52:58;3.50;;;1.48;;
50319;SDS011;36226;53.464;9.852;2022-11-23T13:55:34;4.32;;;1.58;;
50319;SDS011;36226;53.464;9.852;2022-11-23T14:00:57;4.82;;;1.98;;
50319;SDS011;36226;53.464;9.852;2022-11-23T14:26:09;3.65;;;1.55;;
50319;SDS011;36226;53.464;9.852;2022-11-23T14:43:15;5.50;;;1.85;;
50319;SDS011;36226;53.464;9.852;2022-11-23T14:45:45;6.43;;;2.10;;
50319;SDS011;36226;53.464;9.852;2022-11-23T14:48:27;7.65;;;2.22;;
50319;SDS011;36226;53.464;9.852;2022-11-23T14:53:38;6.47;;;2.13;;
50319;SDS011;36226;53.464;9.852;2022-11-23T14:56:05;5.78;;;1.80;;
50319;SDS011;36226;53.464;9.852;2022-11-23T14:58:31;3.75;;;1.70;;
50319;SDS011;36226;53.464;9.852;2022-11-23T15:00:58;6.45;;;1.60;;
50319;SDS011;36226;53.464;9.852;2022-11-23T15:03:25;5.15;;;1.85;;
50319;SDS011;36226;53.464;9.852;2022-11-23T15:06:00;4.68;;;1.85;;
50319;SDS011;36226;53.464;9.852;2022-11-23T15:08:32;6.85;;;1.80;;
50319;SDS011;36226;53.464;9.852;2022-11-23T15:11:11;5.05;;;1.92;;
50319;SDS011;36226;53.464;9.852;2022-11-23T15:13:46;6.18;;;2.22;;
50319;SDS011;36226;53.464;9.852;2022-11-23T15:16:16;5.22;;;2.10;;
50319;SDS011;36226;53.464;9.852;2022-11-23T15:18:43;4.45;;;2.30;;
50319;SDS011;36226;53.464;9.852;2022-11-23T15:23:34;5.82;;;2.00;;
50319;SDS011;36226;53.464;9.852;2022-11-23T15:26:17;7.85;;;2.03;;
50319;SDS011;36226;53.464;9.852;2022-11-23T15:28:44;5.80;;;2.47;;
50319;SDS011;36226;53.464;9.852;2022-11-23T15:33:55;4.72;;;2.55;;
50319;SDS011;36226;53.464;9.852;2022-11-23T15:36:32;5.53;;;1.90;;
50319;SDS011;36226;53.464;9.852;2022-11-23T15:38:59;6.93;;;2.30;;
50319;SDS011;36226;53.464;9.852;2022-11-23T15:41:25;5.38;;;2.40;;
50319;SDS011;36226;53.464;9.852;2022-11-23T15:43:55;9.43;;;2.63;;
50319;SDS011;36226;53.464;9.852;2022-11-23T15:46:25;5.05;;;2.40;;
50319;SDS011;36226;53.464;9.852;2022-11-23T15:48:53;5.72;;;2.47;;
50319;SDS011;36226;53.464;9.852;2022-11-23T15:53:56;4.95;;;2.30;;
50319;SDS011;36226;53.464;9.852;2022-11-23T15:58:55;5.43;;;2.75;;
50319;SDS011;36226;53.464;9.852;2022-11-23T16:01:22;7.22;;;2.88;;
50319;SDS011;36226;53.464;9.852;2022-11-23T16:03:49;7.22;;;3.20;;
50319;SDS011;36226;53.464;9.852;2022-11-23T16:06:38;5.30;;;3.50;;
50319;SDS011;36226;53.464;9.852;2022-11-23T16:11:50;6.82;;;3.13;;
50319;SDS011;36226;53.464;9.852;2022-11-23T16:14:16;4.90;;;3.05;;
50319;SDS011;36226;53.464;9.852;2022-11-23T16:16:44;6.78;;;3.85;;
50319;SDS011;36226;53.464;9.852;2022-11-23T16:19:18;7.88;;;3.85;;
50319;SDS011;36226;53.464;9.852;2022-11-23T16:21:46;9.13;;;4.65;;
50319;SDS011;36226;53.464;9.852;2022-11-23T16:24:15;7.90;;;5.35;;
50319;SDS011;36226;53.464;9.852;2022-11-23T16:26:44;9.48;;;4.68;;
50319;SDS011;36226;53.464;9.852;2022-11-23T16:29:22;6.55;;;4.30;;
50319;SDS011;36226;53.464;9.852;2022-11-23T16:31:51;6.22;;;4.05;;
50319;SDS011;36226;53.464;9.852;2022-11-23T16:34:21;7.10;;;4.72;;
50319;SDS011;36226;53.464;9.852;2022-11-23T16:36:47;8.57;;;5.70;;
50319;SDS011;36226;53.464;9.852;2022-11-23T16:39:16;11.10;;;5.50;;
50319;SDS011;36226;53.464;9.852;2022-11-23T16:41:42;10.55;;;5.22;;
50319;SDS011;36226;53.464;9.852;2022-11-23T16:44:07;9.52;;;6.03;;
50319;SDS011;36226;53.464;9.852;2022-11-23T16:46:33;14.70;;;7.80;;
50319;SDS011;36226;53.464;9.852;2022-11-23T16:48:59;11.05;;;6.60;;
50319;SDS011;36226;53.464;9.852;2022-11-23T16:51:24;11.88;;;6.47;;
50319;SDS011;36226;53.464;9.852;2022-11-23T16:53:50;9.07;;;5.43;;
50319;SDS011;36226;53.464;9.852;2022-11-23T16:56:17;8.52;;;5.35;;
50319;SDS011;36226;53.464;9.852;2022-11-23T16:58:44;9.50;;;6.05;;
50319;SDS011;36226;53.464;9.852;2022-11-23T17:01:19;8.27;;;6.22;;
50319;SDS011;36226;53.464;9.852;2022-11-23T17:03:46;10.20;;;5.70;;
50319;SDS011;36226;53.464;9.852;2022-11-23T17:06:13;10.30;;;5.90;;
50319;SDS011;36226;53.464;9.852;2022-11-23T17:08:42;8.55;;;4.72;;
50319;SDS011;36226;53.464;9.852;2022-11-23T17:11:14;6.68;;;4.45;;
50319;SDS011;36226;53.464;9.852;2022-11-23T17:13:40;8.23;;;4.88;;
50319;SDS011;36226;53.464;9.852;2022-11-23T17:16:11;10.18;;;4.30;;
50319;SDS011;36226;53.464;9.852;2022-11-23T17:18:39;8.75;;;4.85;;
50319;SDS011;36226;53.464;9.852;2022-11-23T17:21:04;8.60;;;4.65;;
50319;SDS011;36226;53.464;9.852;2022-11-23T17:23:30;10.43;;;5.30;;
50319;SDS011;36226;53.464;9.852;2022-11-23T17:25:56;10.38;;;5.88;;
50319;SDS011;36226;53.464;9.852;2022-11-23T17:28:21;9.88;;;4.97;;
50319;SDS011;36226;53.464;9.852;2022-11-23T17:30:47;8.27;;;5.53;;
50319;SDS011;36226;53.464;9.852;2022-11-23T17:33:12;12.18;;;7.43;;
50319;SDS011;36226;53.464;9.852;2022-11-23T17:35:38;11.85;;;8.50;;
50319;SDS011;36226;53.464;9.852;2022-11-23T17:38:04;10.27;;;7.05;;
50319;SDS011;36226;53.464;9.852;2022-11-23T17:40:30;10.55;;;5.82;;
50319;SDS011;36226;53.464;9.852;2022-11-23T17:42:55;12.27;;;6.45;;
50319;SDS011;36226;53.464;9.852;2022-11-23T17:45:21;14.25;;;6.38;;
50319;SDS011;36226;53.464;9.852;2022-11-23T17:47:46;14.05;;;6.47;;
50319;SDS011;36226;53.464;9.852;2022-11-23T17:50:13;13.18;;;7.10;;
50319;SDS011;36226;53.464;9.852;2022-11-23T17:52:41;10.88;;;7.15;;
50319;SDS011;36226;53.464;9.852;2022-11-23T17:55:09;12.88;;;7.45;;
50319;SDS011;36226;53.464;9.852;2022-11-23T17:57:35;12.05;;;6.30;;
50319;SDS011;36226;53.464;9.852;2022-11-23T18:00:01;12.02;;;6.72;;
50319;SDS011;36226;53.464;9.852;2022-11-23T18:02:26;11.80;;;6.40;;
50319;SDS011;36226;53.464;9.852;2022-11-23T18:04:52;9.13;;;5.97;;
50319;SDS011;36226;53.464;9.852;2022-11-23T18:07:17;11.40;;;6.30;;
50319;SDS011;36226;53.464;9.852;2022-11-23T18:09:43;10.77;;;6.90;;
50319;SDS011;36226;53.464;9.852;2022-11-23T18:12:08;16.88;;;7.35;;
50319;SDS011;36226;53.464;9.852;2022-11-23T18:14:34;14.63;;;6.57;;
50319;SDS011;36226;53.464;9.852;2022-11-23T18:16:59;16.20;;;6.80;;
50319;SDS011;36226;53.464;9.852;2022-11-23T18:19:25;10.88;;;6.68;;
50319;SDS011;36226;53.464;9.852;2022-11-23T18:21:51;13.48;;;6.63;;
50319;SDS011;36226;53.464;9.852;2022-11-23T18:24:16;10.93;;;5.90;;
50319;SDS011;36226;53.464;9.852;2022-11-23T18:26:42;11.18;;;5.53;;
50319;SDS011;36226;53.464;9.852;2022-11-23T18:29:07;10.75;;;5.90;;
50319;SDS011;36226;53.464;9.852;2022-11-23T18:31:33;9.93;;;5.70;;
50319;SDS011;36226;53.464;9.852;2022-11-23T18:33:59;12.13;;;5.30;;
50319;SDS011;36226;53.464;9.852;2022-11-23T18:36:27;12.77;;;6.20;;
50319;SDS011;36226;53.464;9.852;2022-11-23T18:38:53;10.80;;;5.93;;
50319;SDS011;36226;53.464;9.852;2022-11-23T18:41:18;11.88;;;5.93;;
50319;SDS011;36226;53.464;9.852;2022-11-23T18:43:43;9.20;;;5.47;;